ENTO

Sandefjord Torp Airport

Torp, Norway
METAR ENTO 202020Z 30005KT CAVOK 14/04 Q1013
Observed Flight Rules
Aug-20 @ 20:20 UTC (11 minutes ago) Visual Flight Rules
Wind Visibility Clouds
300° at 5 knots 10,000+ meters
  • Clear skies
Temperatures Readings
Current 14°C / 57°F
Dewpoint 4°C / 39°F
Humidity 51%
Altimeter 29.91" Hg
Pressure 1013 hPa
Elevation 88
METAR ENTO 202020Z 30005KT CAVOK 14/04 Q1013
Observed Flight Rules
Aug-20 @ 20:20 UTC
(11 minutes ago)
VFR
Wind Visibility
300° at 5 knots 10,000+ meters
Clouds
  • Clear skies
Temperature Dewpoint
14°C / 57°F 4°C / 39°F
Humidity Altimeter Pressure
51% 29.91" Hg 1013 hPa